createdAt,value
2022-12-08T00:02:32.826Z,97526.78
2022-12-08T00:22:35.674Z,97532.91
2022-12-08T00:42:38.082Z,97533.66
2022-12-08T01:02:41.144Z,97554.66
2022-12-08T01:22:43.689Z,97579.53
2022-12-08T01:42:46.094Z,97588.03
2022-12-08T02:02:48.667Z,97580.28
2022-12-08T02:22:51.225Z,97574.19
2022-12-08T02:42:53.596Z,97572.72
2022-12-08T03:02:56.201Z,97573.47
2022-12-08T03:22:58.851Z,97566.22
2022-12-08T03:43:01.240Z,97570.44
2022-12-08T04:03:06.211Z,97560.13
2022-12-08T04:23:08.705Z,97563.91
2022-12-08T04:43:11.438Z,97556.25
2022-12-08T05:03:13.853Z,97563.59
2022-12-08T05:23:16.320Z,97554.34
2022-12-08T05:43:18.828Z,97557.75
2022-12-08T07:04:35.605Z,97587.38
2022-12-08T07:24:38.399Z,97602.66
2022-12-08T07:44:41.041Z,97603.47
2022-12-08T08:04:43.514Z,97604.22
2022-12-08T08:24:46.236Z,97601.13
2022-12-08T08:44:48.954Z,97610.66
2022-12-08T09:04:51.587Z,97592.19
2022-12-08T09:24:55.269Z,97590.31
2022-12-08T09:44:58.495Z,97589.38
2022-12-08T10:05:01.021Z,97555.84
2022-12-08T10:25:03.849Z,97545.25
2022-12-08T10:45:06.267Z,97529.69
2022-12-08T11:05:08.864Z,97510.41
2022-12-08T11:25:14.508Z,97496.06
2022-12-08T11:45:17.144Z,97500.09
2022-12-08T12:05:33.158Z,97493.34
2022-12-08T12:25:42.209Z,97498.09
2022-12-08T12:45:46.876Z,97491.75
2022-12-08T13:05:49.329Z,97488.28
2022-12-08T13:25:52.528Z,97492.09
2022-12-08T14:06:17.697Z,97482.94
2022-12-08T14:26:20.419Z,97487.66
2022-12-08T14:46:24.069Z,97491.91
2022-12-08T15:06:26.515Z,97492.59
2022-12-08T15:26:29.332Z,97493.78
2022-12-08T17:27:57.482Z,97449.50
2022-12-08T17:48:00.201Z,97450.25
2022-12-08T18:08:04.606Z,97442.59
2022-12-08T18:28:07.026Z,97437.53
2022-12-08T18:48:09.831Z,97423.38
2022-12-08T19:08:12.580Z,97402.63
2022-12-08T19:28:15.491Z,97413.31
2022-12-08T19:48:17.913Z,97408.25
2022-12-08T20:08:20.668Z,97414.88
2022-12-08T20:28:23.701Z,97401.72
2022-12-08T20:48:26.240Z,97404.03
2022-12-08T21:08:29.001Z,97401.66
2022-12-08T21:28:31.549Z,97405.00
2022-12-08T21:48:34.497Z,97404.78
2022-12-08T22:08:37.329Z,97410.37
2022-12-08T22:28:39.928Z,97396.53
2022-12-08T22:48:42.843Z,97384.16
2022-12-08T23:08:45.834Z,97377.22
2022-12-08T23:49:26.385Z,97369.78
